SARFSARP

Guest
Details From SARF - FORMOSA
To SARP - POSADAS
Flight Number -
Tags generated
Created
Modified
Stats Distance 143 nm / 265 km
Max Altitude 19,000 ft / 5,791 m
Waypoints 3
Social Downloads 4
Likes 0
Share VATSIM

Download

Looking for another format? Having issues loading an existing format? Contact us
Advertisement - Login to hide

Notes

Basic altitude profile: - Ascent Rate: 2500ft/min - Ascent Speed: 250kts - Cruise Altitude: 35000ft - Cruise Speed: 420kts - Descent Rate: 1500ft/min - Descent Speed: 250kts Options: - Use NATs: yes - Use PACOTS: yes - Use low airways: yes - Use high airways: yes

Route

SARF SAMGU SARP

ID Type Via Altitude Latitude Longitude Leg Dist Tot Dist Heading (true) Name
O SARF APT - 0 ft / 0 m -26.21272˚ -58.22811˚ - 0 nm - FORMOSA
SAMGU FIX - 19,000 ft / 5,791 m -26.85500˚ -57.54167˚ 53 nm 53 nm 136° / 136° -
O SARP APT - 0 ft / 0 m -27.38584˚ -55.97073˚ 89 nm 143 nm 111° / 110° POSADAS

Altitude Profile

Advertisement - Login to hide

SARF

Details ICAO SARF (FMA)
Name FORMOSA
Region Argentina
Timezone America/Argentina/Cordoba (UTC-3.0)
Stats Elevation 194 ft / 59 m (AMSL)
Location -26.212722° -58.228111°
Runways 1
Magnetic Variation 13.312° W

METAR

SARF 211900Z 23005KT 9999 SCT020 21/11 Q1017

Decode

TAF

TAF AMD SARF 211730Z 2118/2218 VRB03KT 9999 BKN020 TX22/2218Z TN10/2210Z BECMG 2121/2123 20005KT CAVOK BECMG 2207/2209 4000 BR NSC PROB40 2209/2210 0500 FG NSC BECMG 2212/2214 09005KT CAVOK

Decode

Departure Runways

ID Width Length Bearing (true) Bearing (mag) Surface Threshold Offset Overrun Length
04 100 ft / 30 m 5,922 ft / 1,805 m 24.88° 38.19° Asphalt 0 ft / 0 m 65 ft / 20 m
22 100 ft / 30 m 5,922 ft / 1,805 m 204.88° 218.19° Asphalt 0 ft / 0 m 65 ft / 20 m

SARP

Details ICAO SARP (PSS)
Name POSADAS
Region Argentina
Timezone America/Argentina/Cordoba (UTC-3.0)
Stats Elevation 430 ft / 131 m (AMSL)
Location -27.385838° -55.970726°
Runways 1
Magnetic Variation 14.625° W

METAR

SARP 211900Z 23004KT CAVOK 19/07 Q1018

Decode

TAF

TAF SARP 211700Z 2118/2218 20005KT CAVOK TX22/2118Z TN10/2210Z BECMG 2205/2207 VRB03KT 3000 BR PROB40 2208/2210 0800 FG SCT008 BECMG 2212/2214 07005KT CAVOK

Decode

Destination Runways

ID Width Length Bearing (true) Bearing (mag) Surface Threshold Offset Overrun Length
01 98 ft / 30 m 7,433 ft / 2,266 m 359.33° 13.96° Asphalt 0 ft / 0 m 75 ft / 23 m
19 98 ft / 30 m 7,433 ft / 2,266 m 179.33° 193.96° Asphalt 0 ft / 0 m 75 ft / 23 m

Approach Navaids

Runway Type Ident Frequency Range Bearing (true) Bearing (mag) Slope Elevation
19 Localiser PO 109.90 MHz 18 nm / 33 km 178.76° 193.39° - 430 ft / 131 m (AMSL)
19 Glidescope PO 109.90 MHz 10 nm / 19 km 179.33° 193.95° 3.00° 430 ft / 131 m (AMSL)
19 DME PO 109.90 MHz 18 nm / 33 km - - - 429 ft / 131 m (AMSL)